Time;durP1;ratioP1;P1;durP2;ratioP2;P2;SDS_P1;SDS_P2;PMS_P1;PMS_P2;Temp;Humidity;BMP_temperature;BMP_pressure;BME280_temperature;BME280_humidity;BME280_pressure;Samples;Min_cycle;Max_cycle;Signal;HPM_P1;HPM_P2
2022/07/07 00:02:22;;;;;;;;;2.00;1.00;;;;;21.06;55.23;102021.78;5060933;28;45411;-73
2022/07/07 00:04:48;;;;;;;;;1.33;1.33;;;;;21.02;55.27;102017.03;5060434;28;45545;-73
2022/07/07 00:07:13;;;;;;;;;2.33;2.33;;;;;21.03;55.21;102019.50;5047911;28;47499;-73
2022/07/07 00:09:38;;;;;;;;;2.00;2.00;;;;;21.00;55.83;102014.53;5041913;28;45356;-73
2022/07/07 00:12:04;;;;;;;;;2.00;2.00;;;;;21.01;55.32;102024.28;5045843;28;45337;-73
2022/07/07 00:14:30;;;;;;;;;1.33;1.33;;;;;20.90;56.00;102022.25;5042304;28;46426;-73
2022/07/07 00:16:56;;;;;;;;;2.67;2.67;;;;;20.85;55.71;102013.91;5066287;28;46472;-73
2022/07/07 00:19:23;;;;;;;;;2.00;2.00;;;;;20.81;56.21;102011.63;5049923;28;45577;-73
2022/07/07 00:21:48;;;;;;;;;4.00;3.33;;;;;20.81;55.99;102008.94;5059934;28;45323;-73
2022/07/07 00:24:14;;;;;;;;;2.00;2.00;;;;;20.81;56.68;102019.72;5059564;28;45335;-73
2022/07/07 00:26:39;;;;;;;;;1.00;1.00;;;;;20.70;56.37;101996.09;5041804;28;47162;-73
2022/07/07 00:29:04;;;;;;;;;1.00;1.00;;;;;20.67;56.28;101996.50;5042152;28;45373;-73
2022/07/07 00:31:30;;;;;;;;;2.00;2.00;;;;;20.67;56.85;101999.22;5060407;28;45322;-73
2022/07/07 00:33:55;;;;;;;;;1.00;1.00;;;;;20.54;56.90;101990.13;5059845;28;45317;-73
2022/07/07 00:36:20;;;;;;;;;2.00;2.00;;;;;20.52;56.77;101992.19;5060211;28;46131;-73
2022/07/07 00:38:47;;;;;;;;;2.00;2.00;;;;;20.47;57.33;101999.28;5059722;28;45312;-73
2022/07/07 00:41:12;;;;;;;;;3.00;3.00;;;;;20.40;57.25;102000.09;5041973;28;45281;-73
2022/07/07 00:43:40;;;;;;;;;3.00;3.00;;;;;20.38;57.54;101999.47;5059697;28;45407;-73
2022/07/07 00:46:07;;;;;;;;;4.00;2.00;;;;;20.31;57.52;101991.41;5060004;28;46432;-72
2022/07/07 00:48:35;;;;;;;;;3.33;3.33;;;;;20.28;57.63;101988.28;5059542;28;45375;-73
2022/07/07 00:51:00;;;;;;;;;2.00;2.00;;;;;20.29;58.10;101996.16;5059686;28;45305;-73
2022/07/07 00:53:26;;;;;;;;;3.00;3.00;;;;;20.26;57.44;101985.78;5059362;28;45294;-72
2022/07/07 00:55:51;;;;;;;;;4.00;3.00;;;;;20.19;58.14;101974.16;5059442;28;45434;-72
2022/07/07 00:58:17;;;;;;;;;2.33;2.33;;;;;20.20;58.32;101981.22;5059656;28;45244;-73
2022/07/07 01:00:42;;;;;;;;;2.00;2.00;;;;;20.13;59.27;101966.91;5059759;28;45234;-73
2022/07/07 01:03:09;;;;;;;;;2.00;2.00;;;;;20.02;59.55;101960.28;5041401;28;46992;-73
2022/07/07 01:05:36;;;;;;;;;2.00;2.00;;;;;20.01;59.28;101967.53;5059516;28;46290;-73
2022/07/07 01:08:03;;;;;;;;;2.33;2.33;;;;;19.98;59.35;101964.38;5059214;28;45549;-73
2022/07/07 01:10:28;;;;;;;;;1.67;1.67;;;;;20.00;59.46;101962.31;5059181;28;46725;-73
2022/07/07 01:12:54;;;;;;;;;2.00;2.00;;;;;19.96;59.47;101950.28;5059312;28;45319;-73
2022/07/07 01:15:19;;;;;;;;;3.67;3.67;;;;;20.00;59.51;101956.94;5059153;28;45408;-73
2022/07/07 01:17:44;;;;;;;;;4.00;4.00;;;;;20.04;59.33;101969.81;5065597;28;45317;-73
2022/07/07 01:20:11;;;;;;;;;3.33;3.33;;;;;20.06;59.19;101958.81;5041239;28;45285;-72
2022/07/07 01:22:38;;;;;;;;;3.00;2.67;;;;;20.07;59.30;101960.47;5059395;28;45381;-73
2022/07/07 01:25:05;;;;;;;;;2.33;2.33;;;;;20.02;59.52;101963.00;5058883;28;46589;-73
2022/07/07 01:27:31;;;;;;;;;4.00;4.00;;;;;19.96;59.33;101959.19;5037798;28;45320;-73
2022/07/07 01:29:57;;;;;;;;;3.33;3.00;;;;;19.87;59.70;101955.06;5052841;28;45324;-73
2022/07/07 01:32:23;;;;;;;;;3.00;3.00;;;;;19.80;59.72;101949.66;5059097;28;45602;-73
2022/07/07 01:34:50;;;;;;;;;3.00;3.00;;;;;19.72;59.93;101953.38;5059092;28;45326;-73
2022/07/07 01:37:16;;;;;;;;;3.00;2.33;;;;;19.74;59.93;101955.88;5040664;28;45973;-73
2022/07/07 01:39:42;;;;;;;;;4.67;4.67;;;;;19.65;60.38;101958.78;5058802;28;45296;-73
2022/07/07 01:42:09;;;;;;;;;3.67;3.67;;;;;19.54;60.67;101952.13;5053753;28;45860;-73
2022/07/07 01:44:35;;;;;;;;;4.00;4.00;;;;;19.51;60.48;101952.53;5058653;28;46799;-73
2022/07/07 01:47:01;;;;;;;;;3.33;3.33;;;;;19.51;60.83;101957.94;5058457;28;45478;-73
2022/07/07 01:49:29;;;;;;;;;5.00;3.67;;;;;19.47;61.09;101953.97;5059266;28;45219;-74
2022/07/07 01:51:54;;;;;;;;;3.33;3.33;;;;;19.41;61.24;101949.41;5059026;28;45322;-73
2022/07/07 01:54:20;;;;;;;;;4.67;4.00;;;;;19.38;61.25;101936.34;5055843;28;47521;-73
2022/07/07 01:56:45;;;;;;;;;4.33;4.00;;;;;19.31;61.67;101947.13;5040877;28;46137;-73
2022/07/07 01:59:11;;;;;;;;;4.00;4.00;;;;;19.28;60.70;101948.31;5058924;28;45434;-73
2022/07/07 02:01:36;;;;;;;;;3.00;3.00;;;;;19.32;61.72;101948.78;5058636;28;45800;-73
2022/07/07 02:04:02;;;;;;;;;8.00;6.00;;;;;19.30;61.75;101938.19;5037060;28;48254;-74
2022/07/07 02:06:27;;;;;;;;;2.00;2.00;;;;;19.34;62.02;101937.78;5037133;28;45310;-73
2022/07/07 02:08:52;;;;;;;;;4.00;4.00;;;;;19.32;61.85;101932.59;5061686;28;45248;-72
2022/07/07 02:11:18;;;;;;;;;4.33;3.67;;;;;19.25;62.00;101921.78;5062232;28;46257;-73
2022/07/07 02:13:49;;;;;;;;;4.33;4.33;;;;;19.26;62.10;101923.47;5062119;28;46294;-73
2022/07/07 02:16:18;;;;;;;;;2.67;2.67;;;;;19.16;62.49;101915.75;5067638;28;45212;-73
2022/07/07 02:18:45;;;;;;;;;3.00;3.00;;;;;19.18;62.43;101915.56;5044661;28;45403;-73
2022/07/07 02:21:12;;;;;;;;;3.67;3.67;;;;;19.11;62.58;101914.72;5043986;28;46301;-73
2022/07/07 02:23:39;;;;;;;;;4.00;4.00;;;;;19.03;62.74;101913.84;5043326;28;47615;-73
2022/07/07 02:26:05;;;;;;;;;4.00;4.00;;;;;19.05;62.79;101916.31;5062287;28;45383;-73
2022/07/07 02:28:30;;;;;;;;;3.33;3.33;;;;;18.99;62.82;101911.75;5062065;28;45359;-73
2022/07/07 02:30:57;;;;;;;;;4.67;4.67;;;;;19.00;62.88;101914.25;5062015;28;45265;-73
2022/07/07 02:33:23;;;;;;;;;6.00;6.00;;;;;18.96;63.38;101912.16;5043568;28;47489;-73
2022/07/07 02:35:50;;;;;;;;;5.00;5.00;;;;;18.90;62.95;101914.63;5062044;28;45551;-73
2022/07/07 02:38:15;;;;;;;;;4.33;4.33;;;;;18.92;63.48;101917.94;5061558;28;45387;-73
2022/07/07 02:40:41;;;;;;;;;5.00;5.00;;;;;18.88;63.79;101910.47;5061446;28;45338;-73
2022/07/07 02:43:08;;;;;;;;;6.00;5.00;;;;;18.85;63.76;101917.09;5061598;28;46170;-73
2022/07/07 02:45:33;;;;;;;;;6.00;5.00;;;;;18.83;63.68;101923.72;5042489;28;46274;-73
2022/07/07 02:47:58;;;;;;;;;5.00;5.00;;;;;18.84;64.05;101919.97;5061756;28;46002;-72
2022/07/07 02:50:24;;;;;;;;;4.33;4.33;;;;;18.77;64.29;101918.09;5061698;28;45351;-73
2022/07/07 02:52:49;;;;;;;;;6.33;6.33;;;;;18.79;63.81;101909.81;5061600;28;45239;-73
2022/07/07 02:55:15;;;;;;;;;4.67;4.67;;;;;18.82;64.74;101913.97;5061716;28;45287;-73
2022/07/07 02:57:40;;;;;;;;;5.33;5.33;;;;;18.78;64.69;101916.22;5061586;28;45331;-73
2022/07/07 03:00:08;;;;;;;;;5.67;4.67;;;;;18.76;64.48;101912.91;5061941;28;45209;-74
2022/07/07 03:02:34;;;;;;;;;5.00;4.33;;;;;18.74;64.40;101917.66;5061483;28;45402;-73
2022/07/07 03:04:59;;;;;;;;;7.00;7.00;;;;;18.71;64.70;101910.00;5061332;28;45428;-72
2022/07/07 03:07:25;;;;;;;;;3.67;3.67;;;;;18.70;64.67;101906.47;5061331;28;45486;-73
2022/07/07 03:09:50;;;;;;;;;6.33;6.33;;;;;18.71;64.44;101904.59;5041543;28;46395;-73
2022/07/07 03:12:16;;;;;;;;;4.33;4.00;;;;;18.74;64.66;101909.59;5061347;28;45587;-73
2022/07/07 03:14:41;;;;;;;;;5.67;5.00;;;;;18.72;64.59;101920.56;5054060;28;45362;-72
2022/07/07 03:17:06;;;;;;;;;3.00;3.00;;;;;18.68;64.65;101914.72;5068023;28;45398;-73
2022/07/07 03:19:34;;;;;;;;;5.00;5.00;;;;;18.68;64.65;101922.00;5050884;28;47230;-73
2022/07/07 03:22:00;;;;;;;;;6.00;5.00;;;;;18.62;64.96;101917.41;5042913;28;47486;-72
2022/07/07 03:24:26;;;;;;;;;3.67;3.67;;;;;18.58;64.93;101919.66;5050024;28;45437;-73
2022/07/07 03:26:52;;;;;;;;;7.00;5.33;;;;;18.52;65.17;101915.91;5061154;28;45201;-73
2022/07/07 03:29:17;;;;;;;;;5.67;4.67;;;;;18.52;65.03;101912.38;5039623;28;46271;-72
2022/07/07 03:31:42;;;;;;;;;7.00;7.00;;;;;18.48;65.84;101903.03;5055266;28;46348;-73
2022/07/07 03:34:08;;;;;;;;;6.33;6.33;;;;;18.45;65.44;101896.19;5046075;28;46224;-72
2022/07/07 03:36:33;;;;;;;;;6.00;6.00;;;;;18.51;65.43;101906.19;5043241;28;45352;-72
2022/07/07 03:38:58;;;;;;;;;5.67;5.67;;;;;18.51;65.71;101891.88;5060489;28;45450;-73
2022/07/07 03:41:24;;;;;;;;;7.33;7.00;;;;;18.55;65.49;101893.97;5042503;28;53353;-73
2022/07/07 03:43:49;;;;;;;;;5.67;5.67;;;;;18.62;65.72;101899.38;5060242;28;45381;-73
2022/07/07 03:46:14;;;;;;;;;6.00;6.00;;;;;18.63;65.58;101892.13;5060880;28;45481;-73
2022/07/07 03:48:40;;;;;;;;;6.67;5.67;;;;;18.66;65.91;101897.13;5060509;28;46988;-72
2022/07/07 03:51:06;;;;;;;;;7.00;7.00;;;;;18.70;65.55;101898.38;5025234;28;46261;-73
2022/07/07 03:53:31;;;;;;;;;7.00;7.00;;;;;18.71;65.36;101897.38;5051983;28;45505;-74
2022/07/07 03:55:57;;;;;;;;;9.00;6.33;;;;;18.73;65.74;101889.06;5057218;28;45336;-73
2022/07/07 03:58:22;;;;;;;;;7.00;6.00;;;;;18.76;65.67;101885.97;5060548;28;45339;-74
2022/07/07 04:00:47;;;;;;;;;6.00;5.00;;;;;18.78;65.28;101883.91;5060389;28;45538;-73
2022/07/07 04:03:13;;;;;;;;;6.00;6.00;;;;;18.73;66.15;101880.97;5060570;28;45339;-73
2022/07/07 04:05:38;;;;;;;;;5.00;4.67;;;;;18.77;65.91;101882.25;5060633;28;45378;-73
2022/07/07 04:08:04;;;;;;;;;5.67;5.33;;;;;18.79;65.96;101886.41;5060016;28;45229;-73
2022/07/07 04:10:29;;;;;;;;;4.00;4.00;;;;;18.83;65.92;101886.84;5042370;28;46058;-73
2022/07/07 04:12:54;;;;;;;;;6.00;6.00;;;;;18.88;66.07;101897.84;5060332;28;45266;-73
2022/07/07 04:15:20;;;;;;;;;5.00;5.00;;;;;18.85;66.02;101894.72;5042180;28;45538;-73
2022/07/07 04:17:45;;;;;;;;;6.00;6.00;;;;;18.85;65.93;101890.16;5056683;28;45869;-72
2022/07/07 04:20:11;;;;;;;;;6.00;6.00;;;;;18.89;65.77;101890.59;5060144;28;45856;-72
2022/07/07 04:22:37;;;;;;;;;8.33;7.00;;;;;18.90;66.08;101885.00;5060194;28;45574;-72
2022/07/07 04:25:03;;;;;;;;;7.67;6.67;;;;;18.93;65.53;101881.06;5045611;28;45205;-72
2022/07/07 04:27:28;;;;;;;;;4.00;4.00;;;;;18.89;66.29;101883.31;5046730;28;45975;-72
2022/07/07 04:29:53;;;;;;;;;6.33;6.33;;;;;18.91;66.46;101885.81;5052216;28;45552;-72
2022/07/07 04:32:18;;;;;;;;;7.67;5.00;;;;;18.88;66.76;101878.13;5042826;28;49707;-74
2022/07/07 04:34:44;;;;;;;;;6.00;6.00;;;;;18.95;66.31;101889.78;5035139;28;45437;-73
2022/07/07 04:37:10;;;;;;;;;5.00;4.33;;;;;18.98;66.27;101889.38;5060117;28;45341;-73
2022/07/07 04:39:35;;;;;;;;;7.00;7.00;;;;;18.98;66.29;101892.06;5059517;28;45323;-73
2022/07/07 04:42:00;;;;;;;;;6.67;6.67;;;;;18.98;66.69;101894.78;5059582;28;45289;-73
2022/07/07 04:44:26;;;;;;;;;7.00;6.00;;;;;19.02;67.07;101897.88;5059868;28;45331;-73
2022/07/07 04:46:52;;;;;;;;;6.33;6.33;;;;;18.99;66.71;101892.88;5053268;28;46163;-72
2022/07/07 04:49:18;;;;;;;;;4.00;4.00;;;;;19.01;67.25;101904.31;5059829;28;45534;-72
2022/07/07 04:51:43;;;;;;;;;5.33;5.00;;;;;19.00;67.43;101903.47;5059746;28;45304;-72
2022/07/07 04:54:08;;;;;;;;;7.00;5.33;;;;;18.96;67.45;101910.28;5059142;28;45920;-73
2022/07/07 04:56:34;;;;;;;;;8.00;7.67;;;;;18.97;68.14;101901.16;5041188;28;46086;-74
2022/07/07 04:58:59;;;;;;;;;8.33;8.00;;;;;19.02;67.41;101906.78;5059665;28;46183;-73
2022/07/07 05:01:24;;;;;;;;;7.00;6.33;;;;;19.09;68.00;101916.81;5059423;28;45747;-72
2022/07/07 05:03:50;;;;;;;;;6.00;5.00;;;;;19.09;67.30;101914.91;5054810;28;45425;-73
2022/07/07 05:06:15;;;;;;;;;8.00;6.00;;;;;19.16;67.92;101920.34;5029992;28;45511;-73
2022/07/07 05:08:41;;;;;;;;;8.00;8.00;;;;;19.15;67.41;101924.88;5040704;28;47285;-73
2022/07/07 05:11:06;;;;;;;;;8.67;8.67;;;;;19.23;67.36;101923.03;5057916;28;45415;-72
2022/07/07 05:13:32;;;;;;;;;12.00;10.00;;;;;19.26;67.55;101933.41;5059644;28;45245;-72
2022/07/07 05:15:57;;;;;;;;;8.00;8.00;;;;;19.26;67.49;101926.16;5051961;28;45321;-74
2022/07/07 05:18:23;;;;;;;;;7.67;7.00;;;;;19.25;67.09;101924.47;5060291;28;45270;-74
2022/07/07 05:20:48;;;;;;;;;11.33;8.67;;;;;19.31;67.64;101930.94;5048183;28;45424;-74
2022/07/07 05:23:13;;;;;;;;;7.00;7.00;;;;;19.35;67.04;101920.56;5058625;28;45987;-74
2022/07/07 05:25:39;;;;;;;;;7.33;7.00;;;;;19.38;67.52;101926.41;5046623;28;45339;-74
2022/07/07 05:28:04;;;;;;;;;6.00;6.00;;;;;19.36;68.19;101916.84;5059131;28;45519;-74
2022/07/07 05:30:30;;;;;;;;;5.67;5.33;;;;;19.33;68.11;101915.38;5044300;28;45890;-74
2022/07/07 05:32:55;;;;;;;;;7.33;7.00;;;;;19.38;67.89;101923.69;5059217;28;45493;-74
2022/07/07 05:35:20;;;;;;;;;7.33;7.33;;;;;19.41;67.94;101914.38;5058824;28;45266;-74
2022/07/07 05:37:46;;;;;;;;;7.67;5.33;;;;;19.47;67.91;101918.94;5040501;28;47011;-74
2022/07/07 05:40:12;;;;;;;;;6.67;6.67;;;;;19.53;67.81;101923.50;5058938;28;45340;-74
2022/07/07 05:42:38;;;;;;;;;6.67;6.67;;;;;19.56;67.83;101919.56;5058518;28;45507;-74
2022/07/07 05:45:04;;;;;;;;;10.00;8.67;;;;;19.61;67.64;101924.34;5058876;28;45531;-74
2022/07/07 05:47:30;;;;;;;;;16.00;13.00;;;;;19.70;67.59;101933.91;5040693;28;47043;-75
2022/07/07 05:49:55;;;;;;;;;9.67;9.67;;;;;19.68;67.97;101925.19;5049941;28;46213;-74
2022/07/07 05:52:21;;;;;;;;;5.67;5.33;;;;;19.74;67.85;101935.13;5040983;28;45356;-74
2022/07/07 05:54:46;;;;;;;;;6.67;6.67;;;;;19.81;67.95;101937.81;5058607;28;45532;-73
2022/07/07 05:57:11;;;;;;;;;6.00;6.00;;;;;19.81;67.98;101935.97;5040522;28;47314;-74
2022/07/07 05:59:37;;;;;;;;;6.00;6.00;;;;;19.75;68.35;101934.09;5058883;28;45319;-74
2022/07/07 06:02:02;;;;;;;;;5.00;5.00;;;;;19.82;68.29;101942.19;5058905;28;45379;-74
2022/07/07 06:04:27;;;;;;;;;5.33;5.33;;;;;19.74;69.87;101939.69;5058743;28;45553;-74
2022/07/07 06:06:53;;;;;;;;;4.00;4.00;;;;;19.70;68.88;101944.69;5043478;28;47028;-74
2022/07/07 06:09:18;;;;;;;;;5.33;5.33;;;;;19.74;68.80;101955.88;5058450;28;45445;-74
2022/07/07 06:11:44;;;;;;;;;5.00;5.00;;;;;19.77;68.69;101958.16;5058707;28;45249;-73
2022/07/07 06:14:10;;;;;;;;;7.00;6.00;;;;;19.83;69.10;101968.13;5058720;28;45547;-74
2022/07/07 06:16:38;;;;;;;;;7.33;6.33;;;;;19.84;68.81;101960.88;5054191;28;47154;-73
2022/07/07 06:19:11;;;;;;;;;7.00;6.00;;;;;19.81;69.64;101960.25;5058703;28;45420;-74
2022/07/07 06:21:38;;;;;;;;;4.67;4.67;;;;;19.77;69.08;101977.88;5052483;28;45378;-74
2022/07/07 06:24:04;;;;;;;;;8.00;6.00;;;;;19.75;69.37;101976.44;5040053;28;47074;-74
2022/07/07 06:26:29;;;;;;;;;5.67;5.67;;;;;19.78;69.05;101976.00;5058376;28;46343;-74
2022/07/07 06:28:54;;;;;;;;;5.67;5.67;;;;;19.79;69.07;101970.41;5040337;28;45320;-74
2022/07/07 06:31:20;;;;;;;;;5.00;4.00;;;;;19.85;70.02;101987.66;5048581;28;45363;-74
2022/07/07 06:33:46;;;;;;;;;5.67;5.67;;;;;19.83;69.81;101988.88;5058215;28;45506;-73
2022/07/07 06:36:11;;;;;;;;;4.33;4.33;;;;;19.87;68.66;101985.56;5058415;28;45562;-74
2022/07/07 06:38:37;;;;;;;;;7.00;4.67;;;;;19.93;69.47;101990.13;5058045;28;45212;-74
2022/07/07 06:41:02;;;;;;;;;6.50;6.00;;;;;19.94;69.72;101985.56;5058517;28;45301;-74
2022/07/07 06:43:28;;;;;;;;;6.33;6.00;;;;;19.93;69.86;101989.28;5050225;28;46224;-74
2022/07/07 06:45:53;;;;;;;;;6.33;6.00;;;;;19.99;69.20;101991.16;5040085;28;48206;-74
2022/07/07 06:48:19;;;;;;;;;7.00;7.00;;;;;20.00;68.42;101984.75;5058037;28;45355;-74
2022/07/07 06:50:44;;;;;;;;;5.33;5.33;;;;;20.08;68.79;101985.59;5058248;28;45442;-74
2022/07/07 06:53:10;;;;;;;;;10.67;7.00;;;;;20.16;68.67;101990.78;5058355;28;45320;-73
2022/07/07 06:55:36;;;;;;;;;9.00;7.33;;;;;20.14;68.97;101993.69;5061435;28;45592;-74
2022/07/07 06:58:04;;;;;;;;;7.00;7.00;;;;;20.09;70.06;101993.50;5061467;28;45357;-74
2022/07/07 07:00:30;;;;;;;;;7.67;6.67;;;;;20.08;69.21;101999.09;5061503;28;45212;-74
2022/07/07 07:02:56;;;;;;;;;7.00;5.00;;;;;20.13;69.62;101994.72;5061145;28;45599;-74
2022/07/07 07:05:21;;;;;;;;;6.33;5.00;;;;;20.22;68.84;101999.91;5047379;28;47115;-73
2022/07/07 07:07:47;;;;;;;;;7.33;6.00;;;;;20.29;68.50;101996.16;5061169;28;45324;-74
2022/07/07 07:10:12;;;;;;;;;6.00;5.00;;;;;20.38;68.94;102001.38;5061249;28;45443;-74
2022/07/07 07:12:38;;;;;;;;;4.00;3.00;;;;;20.42;68.24;102003.41;5043443;28;47039;-74
2022/07/07 07:15:05;;;;;;;;;7.33;7.33;;;;;20.50;68.17;102001.56;5060923;28;47128;-73
2022/07/07 07:17:30;;;;;;;;;5.67;5.33;;;;;20.66;67.83;102011.06;5067771;28;45382;-74
2022/07/07 07:19:56;;;;;;;;;5.67;5.67;;;;;20.74;67.92;102008.13;5061047;28;45416;-74
2022/07/07 07:22:22;;;;;;;;;5.00;5.00;;;;;20.84;67.38;102014.97;5061169;28;45571;-74
2022/07/07 07:24:47;;;;;;;;;5.00;5.00;;;;;20.91;67.16;102013.94;5060752;28;46021;-74
2022/07/07 07:27:12;;;;;;;;;6.00;6.00;;;;;21.01;66.92;102016.19;5061178;28;45336;-74
2022/07/07 07:29:38;;;;;;;;;5.00;5.00;;;;;21.16;66.88;102020.50;5061321;28;45332;-74
2022/07/07 07:32:03;;;;;;;;;6.33;6.00;;;;;21.24;66.27;102016.69;5061210;28;45743;-73
2022/07/07 07:34:29;;;;;;;;;4.67;4.00;;;;;21.37;66.36;102021.22;5061014;28;46712;-73
2022/07/07 07:36:54;;;;;;;;;4.67;3.67;;;;;21.41;65.85;102027.88;5061115;28;45314;-74
2022/07/07 07:39:20;;;;;;;;;4.33;4.33;;;;;21.53;66.34;102031.56;5046633;28;45246;-74
2022/07/07 07:41:45;;;;;;;;;4.00;4.00;;;;;21.62;65.96;102024.00;5060779;28;45197;-74
2022/07/07 07:44:10;;;;;;;;;5.33;4.00;;;;;21.76;65.12;102034.78;5060728;28;46320;-74
2022/07/07 07:46:36;;;;;;;;;5.33;5.33;;;;;21.84;64.86;102030.97;5060835;28;45209;-74
2022/07/07 07:49:05;;;;;;;;;5.33;5.00;;;;;21.92;64.72;102041.53;5060800;28;45247;-74
2022/07/07 07:51:32;;;;;;;;;6.67;6.67;;;;;22.04;64.38;102044.34;5042609;28;47492;-74
2022/07/07 07:53:57;;;;;;;;;5.67;3.33;;;;;22.10;64.38;102045.34;5041855;28;47193;-74
2022/07/07 07:56:23;;;;;;;;;5.67;5.67;;;;;22.12;64.06;102051.38;5060878;28;45296;-74
2022/07/07 07:58:48;;;;;;;;;3.67;3.67;;;;;22.19;63.54;102058.41;5052962;28;45222;-73
2022/07/07 08:01:13;;;;;;;;;4.67;4.67;;;;;22.13;63.79;102045.75;5060479;28;45912;-73
2022/07/07 08:03:39;;;;;;;;;5.00;4.00;;;;;22.17;63.32;102046.09;5060726;28;45166;-73
2022/07/07 08:06:04;;;;;;;;;5.33;4.00;;;;;22.21;63.66;102041.94;5059822;28;45190;-74
2022/07/07 08:08:29;;;;;;;;;4.00;4.00;;;;;22.31;63.35;102042.25;5060241;28;45712;-73
2022/07/07 08:10:55;;;;;;;;;5.00;4.67;;;;;22.35;62.72;102034.50;5060270;28;45520;-74
2022/07/07 08:13:21;;;;;;;;;2.67;2.67;;;;;22.40;62.22;102025.72;5056204;28;47887;-74
2022/07/07 08:15:46;;;;;;;;;2.00;2.00;;;;;22.57;61.95;102034.09;5049633;28;45343;-74
2022/07/07 08:18:12;;;;;;;;;2.00;2.00;;;;;22.69;61.38;102036.94;5065031;28;45615;-74
2022/07/07 08:20:38;;;;;;;;;3.33;3.33;;;;;22.79;61.37;102030.97;5060265;28;45467;-74
2022/07/07 08:23:04;;;;;;;;;2.67;2.67;;;;;22.90;60.77;102034.81;5041787;28;47401;-74
2022/07/07 08:25:29;;;;;;;;;2.67;2.67;;;;;22.91;60.38;102022.91;5058105;28;45288;-74
2022/07/07 08:27:54;;;;;;;;;2.00;1.33;;;;;22.93;60.15;102027.03;5060373;28;45434;-74
2022/07/07 08:30:19;;;;;;;;;2.00;2.00;;;;;22.95;60.30;102022.25;5059703;28;50857;-74
2022/07/07 08:32:45;;;;;;;;;3.00;3.00;;;;;23.08;59.84;102028.56;5060166;28;46410;-73
2022/07/07 08:35:12;;;;;;;;;3.33;2.33;;;;;23.13;59.52;102028.69;5060097;28;45412;-74
2022/07/07 08:37:37;;;;;;;;;2.67;1.33;;;;;23.18;58.58;102033.44;5045747;28;45304;-74
2022/07/07 08:40:03;;;;;;;;;2.00;2.00;;;;;23.19;58.77;102043.22;5042033;28;47100;-74
2022/07/07 08:42:29;;;;;;;;;1.33;1.33;;;;;23.13;58.23;102031.41;5059715;28;45526;-74
2022/07/07 08:44:54;;;;;;;;;3.00;3.00;;;;;23.23;58.37;102036.31;5060135;28;45416;-75
2022/07/07 08:47:20;;;;;;;;;2.00;2.00;;;;;23.20;58.05;102031.34;5059903;28;45652;-74
2022/07/07 08:49:45;;;;;;;;;1.67;1.67;;;;;23.22;57.69;102033.81;5060060;28;45280;-75
2022/07/07 08:52:11;;;;;;;;;2.33;2.33;;;;;23.20;57.72;102031.34;5053330;28;47136;-73
2022/07/07 08:54:42;;;;;;;;;1.33;1.33;;;;;23.16;57.12;102024.69;5059791;28;45260;-75
2022/07/07 08:57:07;;;;;;;;;1.33;1.33;;;;;23.03;57.98;102012.97;5052140;28;45320;-73
2022/07/07 08:59:33;;;;;;;;;1.33;1.00;;;;;22.97;58.14;102008.47;5059533;28;45458;-74
2022/07/07 09:02:01;;;;;;;;;1.67;1.67;;;;;23.11;58.68;102019.97;5059412;28;45394;-74
2022/07/07 09:04:27;;;;;;;;;1.00;1.00;;;;;23.27;58.25;102028.53;5041615;28;45238;-74
2022/07/07 09:06:58;;;;;;;;;1.00;1.00;;;;;23.50;58.41;102033.25;5058141;28;45297;-75
2022/07/07 09:09:46;;;;;;;;;2.33;2.33;;;;;23.68;57.84;102035.06;5041190;28;47030;-74
2022/07/07 09:12:14;;;;;;;;;2.00;2.00;;;;;23.80;57.06;102031.56;5059778;28;45213;-74
2022/07/07 09:14:48;;;;;;;;;2.00;2.00;;;;;23.81;56.61;102039.47;5052245;28;45363;-74
2022/07/07 09:17:15;;;;;;;;;3.00;3.00;;;;;23.86;56.85;102044.22;5058195;28;45683;-73
2022/07/07 09:19:40;;;;;;;;;1.00;1.00;;;;;23.87;56.44;102054.00;5059371;28;45486;-74
2022/07/07 09:22:06;;;;;;;;;1.67;1.67;;;;;23.91;56.83;102035.38;5059023;28;46592;-74
2022/07/07 09:24:31;;;;;;;;;1.00;1.00;;;;;23.99;55.84;102047.75;5059073;28;45304;-74
2022/07/07 09:26:56;;;;;;;;;1.67;1.67;;;;;24.09;55.92;102040.69;5055288;28;45465;-74
2022/07/07 09:29:23;;;;;;;;;1.33;1.00;;;;;24.18;55.11;102052.06;5041334;28;45610;-73
2022/07/07 09:31:57;;;;;;;;;1.00;1.00;;;;;24.32;55.01;102051.84;5059117;28;46426;-74
2022/07/07 09:34:28;;;;;;;;;0.67;0.67;;;;;24.43;54.80;102061.06;5059350;28;45424;-74
2022/07/07 09:39:51;;;;;;;;;1.00;1.00;;;;;24.57;54.29;102054.31;5058972;28;45281;-74
2022/07/07 09:42:26;;;;;;;;;2.33;1.67;;;;;24.67;54.84;102052.91;5058852;28;46264;-74
2022/07/07 09:45:13;;;;;;;;;0.67;0.67;;;;;24.80;54.19;102068.13;5059138;28;45291;-74
2022/07/07 09:47:39;;;;;;;;;0.33;0.33;;;;;24.76;53.52;102064.22;5040405;28;45250;-74
2022/07/07 09:50:08;;;;;;;;;1.00;1.00;;;;;24.77;53.07;102077.59;5059154;28;45320;-75
2022/07/07 09:52:39;;;;;;;;;1.00;1.00;;;;;24.77;53.35;102074.03;5058440;28;45389;-74
2022/07/07 09:55:08;;;;;;;;;2.00;1.00;;;;;24.68;53.08;102077.13;5058997;28;45340;-74
2022/07/07 09:57:34;;;;;;;;;0.67;0.67;;;;;24.62;52.40;102082.66;5059014;28;45975;-74
2022/07/07 09:59:59;;;;;;;;;0.00;0.00;;;;;24.50;52.96;102085.38;5037518;28;45341;-74
2022/07/07 10:02:27;;;;;;;;;2.00;2.00;;;;;24.39;53.85;102100.63;5052434;28;47624;-73
2022/07/07 10:04:58;;;;;;;;;2.00;2.00;;;;;24.31;54.18;102118.09;5058700;28;45332;-75
2022/07/07 10:07:26;;;;;;;;;2.33;2.33;;;;;24.18;53.70;102111.00;5040933;28;45361;-74
2022/07/07 10:09:54;;;;;;;;;2.67;2.67;;;;;24.09;53.92;102124.88;5058094;28;45280;-75
2022/07/07 10:12:24;;;;;;;;;1.00;1.00;;;;;24.01;54.23;102113.53;5058600;28;46681;-74
2022/07/07 10:14:57;;;;;;;;;1.00;1.00;;;;;23.97;54.55;102134.88;5058536;28;45477;-74
2022/07/07 10:17:24;;;;;;;;;0.00;0.00;;;;;23.89;54.67;102129.78;5052070;28;45956;-74
2022/07/07 10:19:50;;;;;;;;;0.00;0.00;;;;;23.86;54.64;102130.22;5058490;28;45359;-74
2022/07/07 10:22:21;;;;;;;;;2.00;2.00;;;;;23.79;54.36;102120.28;5058551;28;45469;-74
2022/07/07 10:24:47;;;;;;;;;1.00;0.33;;;;;23.72;54.29;102133.13;5058260;28;45383;-74
2022/07/07 10:27:15;;;;;;;;;1.00;1.00;;;;;23.66;53.91;102148.44;5040522;28;45540;-74
2022/07/07 10:29:51;;;;;;;;;1.00;1.00;;;;;23.64;54.25;102138.88;5061080;28;45367;-74
2022/07/07 10:32:17;;;;;;;;;1.67;1.67;;;;;23.72;54.46;102152.13;5061777;28;45319;-74
2022/07/07 10:34:54;;;;;;;;;1.00;1.00;;;;;23.82;54.10;102151.56;5062088;28;45395;-74
2022/07/07 10:37:21;;;;;;;;;3.00;1.00;;;;;23.88;53.84;102147.94;5061975;28;45490;-75
2022/07/07 10:39:49;;;;;;;;;2.00;1.00;;;;;23.95;54.09;102142.44;5061569;28;45361;-75
2022/07/07 10:42:14;;;;;;;;;3.00;3.00;;;;;24.05;53.77;102152.72;5061616;28;45358;-74
2022/07/07 10:44:43;;;;;;;;;1.33;1.33;;;;;24.19;53.53;102158.81;5061869;28;45344;-74
2022/07/07 10:47:30;;;;;;;;;1.33;1.33;;;;;24.28;52.87;102157.44;5061698;28;45283;-74
2022/07/07 10:49:56;;;;;;;;;1.00;1.00;;;;;24.28;52.91;102162.88;5040159;28;47171;-73
2022/07/07 10:52:24;;;;;;;;;2.00;1.00;;;;;24.44;53.22;102161.34;5040166;28;45358;-74
2022/07/07 10:54:59;;;;;;;;;1.00;1.00;;;;;24.66;53.16;102157.25;5061389;28;45472;-74
2022/07/07 10:57:26;;;;;;;;;1.67;1.67;;;;;24.83;52.44;102166.34;5043607;28;45348;-74
2022/07/07 11:00:04;;;;;;;;;1.00;1.00;;;;;24.86;51.94;102162.31;5061531;28;45273;-74
2022/07/07 11:02:33;;;;;;;;;2.00;2.00;;;;;24.75;51.97;102158.53;5061334;28;45378;-74
2022/07/07 11:05:00;;;;;;;;;1.00;1.00;;;;;24.71;52.06;102157.34;5039771;28;45363;-75
2022/07/07 11:07:28;;;;;;;;;2.00;2.00;;;;;24.73;51.77;102157.94;5051854;28;45305;-74
2022/07/07 11:10:11;;;;;;;;;3.00;3.00;;;;;24.76;52.18;102149.31;5042992;28;46176;-74
2022/07/07 11:12:40;;;;;;;;;1.33;1.33;;;;;24.75;51.65;102157.72;5061426;28;45599;-74
2022/07/07 11:15:18;;;;;;;;;2.00;2.00;;;;;24.78;51.09;102163.50;5061104;28;45352;-74
2022/07/07 11:17:46;;;;;;;;;1.67;1.00;;;;;24.86;51.79;102161.47;5057774;28;45402;-74
2022/07/07 11:20:17;;;;;;;;;2.00;2.00;;;;;25.08;51.34;102164.47;5042944;28;45933;-75
2022/07/07 11:22:49;;;;;;;;;2.00;2.00;;;;;25.34;51.33;102160.41;5060952;28;45614;-74
2022/07/07 11:25:18;;;;;;;;;1.00;1.00;;;;;25.53;50.90;102162.94;5061058;28;45238;-75